createdAt,value
2017-08-22T00:00:45.536Z,12.20
2017-08-22T00:03:13.132Z,12.10
2017-08-22T00:05:41.060Z,12.10
2017-08-22T00:08:08.621Z,12.10
2017-08-22T00:10:36.194Z,12.00
2017-08-22T00:13:03.778Z,11.90
2017-08-22T00:15:31.346Z,11.90
2017-08-22T00:17:58.935Z,11.90
2017-08-22T00:20:26.498Z,11.90
2017-08-22T00:22:54.366Z,11.80
2017-08-22T00:25:21.926Z,11.70
2017-08-22T00:27:49.499Z,11.70
2017-08-22T00:30:17.111Z,11.60
2017-08-22T00:32:44.667Z,11.50
2017-08-22T00:35:12.267Z,11.50
2017-08-22T00:37:39.822Z,11.50
2017-08-22T00:40:07.469Z,11.50
2017-08-22T00:42:35.065Z,11.50
2017-08-22T00:45:02.642Z,11.50
2017-08-22T00:47:30.233Z,11.50
2017-08-22T00:49:57.790Z,11.50
2017-08-22T00:52:25.367Z,11.50
2017-08-22T00:54:52.957Z,11.50
2017-08-22T00:57:20.999Z,11.40
2017-08-22T00:59:48.575Z,11.40
2017-08-22T01:02:16.150Z,11.40
2017-08-22T01:04:43.734Z,11.40
2017-08-22T01:07:11.306Z,11.30
2017-08-22T01:09:38.893Z,11.30
2017-08-22T01:12:06.480Z,11.20
2017-08-22T01:14:34.484Z,11.20
2017-08-22T01:17:02.051Z,11.30
2017-08-22T01:19:29.626Z,11.20
2017-08-22T01:21:57.238Z,11.20
2017-08-22T01:24:24.811Z,11.20
2017-08-22T01:26:52.414Z,11.20
2017-08-22T01:29:20.024Z,11.20
2017-08-22T01:31:47.858Z,11.20
2017-08-22T01:34:15.437Z,11.20
2017-08-22T01:36:43.014Z,11.30
2017-08-22T01:39:10.629Z,11.20
2017-08-22T01:41:38.217Z,11.20
2017-08-22T01:44:05.826Z,11.10
2017-08-22T01:46:33.396Z,11.10
2017-08-22T01:49:01.286Z,11.10
2017-08-22T01:51:28.861Z,11.00
2017-08-22T01:53:56.542Z,11.00
2017-08-22T01:56:24.121Z,11.00
2017-08-22T01:58:51.679Z,11.00
2017-08-22T02:01:19.270Z,10.90
2017-08-22T02:03:46.836Z,11.00
2017-08-22T02:06:14.622Z,10.90
2017-08-22T02:08:42.194Z,10.90
2017-08-22T02:11:09.746Z,10.90
2017-08-22T02:13:37.342Z,10.90
2017-08-22T02:16:04.939Z,10.80
2017-08-22T02:18:32.526Z,10.80
2017-08-22T02:21:00.082Z,10.90
2017-08-22T02:23:27.818Z,11.00
2017-08-22T02:25:55.377Z,10.90
2017-08-22T02:28:22.933Z,10.90
2017-08-22T02:30:50.522Z,10.90
2017-08-22T02:33:18.083Z,10.80
2017-08-22T02:35:45.679Z,10.80
2017-08-22T02:38:13.249Z,10.80
2017-08-22T02:40:40.845Z,10.80
2017-08-22T02:43:08.406Z,10.70
2017-08-22T02:45:36.007Z,10.70
2017-08-22T02:48:04.230Z,10.60
2017-08-22T02:50:31.798Z,10.60
2017-08-22T02:52:59.382Z,10.60
2017-08-22T02:55:26.951Z,10.60
2017-08-22T02:57:54.579Z,10.70
2017-08-22T03:00:22.185Z,10.60
2017-08-22T03:02:49.747Z,10.60
2017-08-22T03:05:17.340Z,10.60
2017-08-22T03:07:44.934Z,10.70
2017-08-22T03:10:12.516Z,10.60
2017-08-22T03:12:40.082Z,10.60
2017-08-22T03:15:08.076Z,10.40
2017-08-22T03:17:35.639Z,10.30
2017-08-22T03:20:03.205Z,10.40
2017-08-22T03:22:30.790Z,10.30
2017-08-22T03:24:58.354Z,10.40
2017-08-22T03:27:25.938Z,10.30
2017-08-22T03:29:53.514Z,10.30
2017-08-22T03:32:21.411Z,10.30
2017-08-22T03:34:48.969Z,10.30
2017-08-22T03:37:16.522Z,10.30
2017-08-22T03:39:44.110Z,10.30
2017-08-22T03:42:11.702Z,10.30
2017-08-22T03:44:39.298Z,10.30
2017-08-22T03:47:06.866Z,10.30
2017-08-22T03:49:34.621Z,10.20
2017-08-22T03:52:02.214Z,10.20
2017-08-22T03:54:29.781Z,10.20
2017-08-22T03:56:57.365Z,10.20
2017-08-22T03:59:24.928Z,10.20
2017-08-22T04:01:52.514Z,10.20
2017-08-22T04:04:20.071Z,10.10
2017-08-22T04:06:47.986Z,10.00
2017-08-22T04:09:15.541Z,9.90
2017-08-22T04:11:43.102Z,9.90
2017-08-22T04:14:11.272Z,9.80
2017-08-22T04:16:38.854Z,9.80
2017-08-22T04:19:06.428Z,9.80
2017-08-22T04:21:33.986Z,9.80
2017-08-22T04:24:01.730Z,9.80
2017-08-22T04:26:29.293Z,9.70
2017-08-22T04:28:56.846Z,9.70
2017-08-22T04:31:24.426Z,9.70
2017-08-22T04:33:52.007Z,9.70
2017-08-22T04:36:19.590Z,9.80
2017-08-22T04:38:47.145Z,9.70
2017-08-22T04:41:14.970Z,9.80
2017-08-22T04:43:42.534Z,9.80
2017-08-22T04:46:10.087Z,9.80
2017-08-22T04:48:37.669Z,9.90
2017-08-22T04:51:05.230Z,10.00
2017-08-22T04:53:32.817Z,10.00
2017-08-22T04:56:00.517Z,10.10
2017-08-22T04:58:28.269Z,10.10
2017-08-22T05:00:55.828Z,10.10
2017-08-22T05:03:23.603Z,10.10
2017-08-22T05:05:52.098Z,10.10
2017-08-22T05:08:19.671Z,10.30
2017-08-22T05:10:47.265Z,10.40
2017-08-22T05:13:14.875Z,10.50
2017-08-22T05:15:42.478Z,10.60
2017-08-22T05:18:10.060Z,10.60
2017-08-22T05:20:37.710Z,10.70
2017-08-22T05:23:05.271Z,10.70
2017-08-22T05:25:32.863Z,10.80
2017-08-22T05:28:00.453Z,10.90
2017-08-22T05:30:28.026Z,11.00
2017-08-22T05:32:55.627Z,11.10
2017-08-22T05:35:23.245Z,11.20
2017-08-22T05:37:50.849Z,11.20
2017-08-22T05:40:18.442Z,11.30
2017-08-22T05:42:46.003Z,11.30
2017-08-22T05:45:13.614Z,11.40
2017-08-22T05:47:41.198Z,11.60
2017-08-22T05:50:08.763Z,11.60
2017-08-22T05:52:36.498Z,11.70
2017-08-22T05:55:04.067Z,11.80
2017-08-22T05:57:32.080Z,12.00
2017-08-22T05:59:59.646Z,12.20
2017-08-22T06:02:27.288Z,12.20
2017-08-22T06:04:54.868Z,12.30
2017-08-22T06:07:22.446Z,12.40
2017-08-22T06:09:50.032Z,12.60
2017-08-22T06:12:17.602Z,12.70
2017-08-22T06:14:45.186Z,12.80
2017-08-22T06:17:12.744Z,12.90
2017-08-22T06:19:40.327Z,13.00
2017-08-22T06:22:07.926Z,13.20
2017-08-22T06:24:36.313Z,13.40
2017-08-22T06:27:03.893Z,13.40
2017-08-22T06:29:31.457Z,13.60
2017-08-22T06:31:59.033Z,13.80
2017-08-22T06:34:26.594Z,14.30
2017-08-22T06:36:54.350Z,14.70
2017-08-22T06:39:21.931Z,15.60
2017-08-22T06:41:49.493Z,16.80
2017-08-22T06:44:17.101Z,18.00
2017-08-22T06:46:44.679Z,18.30
2017-08-22T06:49:12.265Z,18.60
2017-08-22T06:51:39.830Z,19.10
2017-08-22T06:54:07.419Z,19.60
2017-08-22T06:56:35.017Z,20.80
2017-08-22T06:59:02.586Z,21.40
2017-08-22T07:01:30.177Z,21.60
2017-08-22T07:03:57.745Z,21.80
2017-08-22T07:06:25.335Z,22.50
2017-08-22T07:08:52.899Z,23.10
2017-08-22T07:11:20.480Z,23.30
2017-08-22T07:13:48.090Z,24.10
2017-08-22T07:16:15.650Z,24.30
2017-08-22T07:18:43.235Z,24.70
2017-08-22T07:21:10.944Z,25.30
2017-08-22T07:23:38.654Z,25.40
2017-08-22T07:26:06.214Z,26.10
2017-08-22T07:28:33.775Z,26.70
2017-08-22T07:31:01.571Z,26.90
2017-08-22T07:33:29.446Z,26.90
2017-08-22T07:35:57.030Z,27.10
2017-08-22T07:38:24.619Z,27.50
2017-08-22T07:40:52.206Z,27.30
2017-08-22T07:43:19.793Z,26.90
2017-08-22T07:45:47.350Z,26.70
2017-08-22T07:48:14.933Z,27.90
2017-08-22T07:50:42.506Z,28.40
2017-08-22T07:53:10.093Z,29.00
2017-08-22T07:55:37.666Z,29.10
2017-08-22T07:58:05.586Z,29.30
2017-08-22T08:00:33.168Z,29.70
2017-08-22T08:03:00.725Z,29.30
2017-08-22T08:05:28.309Z,29.60
2017-08-22T08:07:55.876Z,29.70
2017-08-22T08:10:23.463Z,30.30
2017-08-22T08:12:51.039Z,30.50
2017-08-22T08:15:18.594Z,30.40
2017-08-22T08:17:46.193Z,30.20
2017-08-22T08:20:13.758Z,30.20
2017-08-22T08:22:41.346Z,30.10
2017-08-22T08:25:08.913Z,30.20
2017-08-22T08:27:36.591Z,30.30
2017-08-22T08:30:04.201Z,29.70
2017-08-22T08:32:31.773Z,29.80
2017-08-22T08:34:59.365Z,30.00
2017-08-22T08:37:26.918Z,29.90
2017-08-22T08:39:54.474Z,29.70
2017-08-22T08:42:22.058Z,29.80
2017-08-22T08:44:49.636Z,29.70
2017-08-22T08:47:17.219Z,29.70
2017-08-22T08:49:44.778Z,29.80
2017-08-22T08:52:12.333Z,29.90
2017-08-22T08:54:39.934Z,30.00
2017-08-22T08:57:07.499Z,30.10
2017-08-22T08:59:36.425Z,30.20
2017-08-22T09:02:04.163Z,30.40
2017-08-22T09:04:31.754Z,30.70
2017-08-22T09:06:59.338Z,30.50
2017-08-22T09:09:26.930Z,30.40
2017-08-22T09:11:54.533Z,30.60
2017-08-22T09:14:22.143Z,30.70
2017-08-22T09:16:49.748Z,30.60
2017-08-22T09:19:17.339Z,30.50
2017-08-22T09:21:44.922Z,30.40
2017-08-22T09:24:12.512Z,29.70
2017-08-22T09:26:40.388Z,29.50
2017-08-22T09:29:08.115Z,30.00
2017-08-22T09:31:35.705Z,29.70
2017-08-22T09:34:03.318Z,29.40
2017-08-22T09:36:30.903Z,29.80
2017-08-22T09:38:58.485Z,29.10
2017-08-22T09:41:26.086Z,28.90
2017-08-22T09:43:53.651Z,29.00
2017-08-22T09:46:21.239Z,29.20
2017-08-22T09:48:48.822Z,29.50
2017-08-22T09:51:16.406Z,29.80
2017-08-22T09:53:47.081Z,30.20
2017-08-22T09:56:15.298Z,30.80
2017-08-22T09:58:42.876Z,31.20
2017-08-22T10:01:10.680Z,31.40
2017-08-22T10:03:38.664Z,31.80
2017-08-22T10:06:06.221Z,31.80
2017-08-22T10:08:33.806Z,31.30
2017-08-22T10:11:01.372Z,31.10
2017-08-22T10:13:28.976Z,31.80
2017-08-22T10:15:56.534Z,31.40
2017-08-22T10:18:24.312Z,31.60
2017-08-22T10:20:51.883Z,31.40
2017-08-22T10:23:19.442Z,31.20
2017-08-22T10:25:47.042Z,31.60
2017-08-22T10:28:14.598Z,31.40
2017-08-22T10:30:42.317Z,31.10
2017-08-22T10:33:09.873Z,30.70
2017-08-22T10:35:37.430Z,30.60
2017-08-22T10:38:05.018Z,30.60
2017-08-22T10:40:32.572Z,31.30
2017-08-22T10:43:00.214Z,30.70
2017-08-22T10:45:27.774Z,30.90
2017-08-22T10:47:55.333Z,31.10
2017-08-22T10:50:22.912Z,31.40
2017-08-22T10:52:50.470Z,31.00
2017-08-22T10:55:18.177Z,30.60
2017-08-22T10:57:45.743Z,30.90
2017-08-22T11:00:13.319Z,31.20
2017-08-22T11:02:40.947Z,31.10
2017-08-22T11:05:08.544Z,31.30
2017-08-22T11:07:36.137Z,31.40
2017-08-22T11:10:03.695Z,31.50
2017-08-22T11:12:31.259Z,31.30
2017-08-22T11:14:58.839Z,31.30
2017-08-22T11:17:26.403Z,31.30
2017-08-22T11:19:54.137Z,31.50
2017-08-22T11:22:21.702Z,31.40
2017-08-22T11:24:49.278Z,31.90
2017-08-22T11:27:17.507Z,31.70
2017-08-22T11:29:45.088Z,31.60
2017-08-22T11:32:12.860Z,31.20
2017-08-22T11:34:40.461Z,31.60
2017-08-22T11:37:08.022Z,30.80
2017-08-22T11:39:35.619Z,31.40
2017-08-22T11:42:03.181Z,31.50
2017-08-22T11:44:30.826Z,31.50
2017-08-22T11:46:58.386Z,31.80
2017-08-22T11:49:25.942Z,31.70
2017-08-22T11:51:53.521Z,31.30
2017-08-22T11:54:21.082Z,31.00
2017-08-22T11:56:48.818Z,30.70
2017-08-22T11:59:16.379Z,30.50
2017-08-22T12:01:43.931Z,30.80
2017-08-22T12:04:11.511Z,30.90
2017-08-22T12:06:39.067Z,31.00
2017-08-22T12:09:06.922Z,30.80
2017-08-22T12:11:34.571Z,31.10
2017-08-22T12:14:02.130Z,31.00
2017-08-22T12:16:29.710Z,30.40
2017-08-22T12:18:57.318Z,30.40
2017-08-22T12:21:25.240Z,30.40
2017-08-22T12:23:52.823Z,30.20
2017-08-22T12:26:20.390Z,30.80
2017-08-22T12:28:47.971Z,30.50
2017-08-22T12:31:15.530Z,30.70
2017-08-22T12:33:43.543Z,30.80
2017-08-22T12:36:11.115Z,30.80
2017-08-22T12:38:39.438Z,29.90
2017-08-22T12:41:07.018Z,29.80
2017-08-22T12:43:34.583Z,30.00
2017-08-22T12:46:02.570Z,29.60
2017-08-22T12:48:30.141Z,29.20
2017-08-22T12:50:57.698Z,29.30
2017-08-22T12:53:25.292Z,29.40
2017-08-22T12:55:53.635Z,30.00
2017-08-22T12:58:22.210Z,30.20
2017-08-22T13:00:49.766Z,30.10
2017-08-22T13:03:17.330Z,29.40
2017-08-22T13:05:44.917Z,29.50
2017-08-22T13:08:12.477Z,29.60
2017-08-22T13:10:40.124Z,29.40
2017-08-22T13:13:07.694Z,28.80
2017-08-22T13:15:35.534Z,28.40
2017-08-22T13:18:03.138Z,28.60
2017-08-22T13:20:30.698Z,29.10
2017-08-22T13:22:58.510Z,28.70
2017-08-22T13:25:26.070Z,28.60
2017-08-22T13:27:53.630Z,28.70
2017-08-22T13:30:21.226Z,28.90
2017-08-22T13:32:48.778Z,28.90
2017-08-22T13:35:16.606Z,28.60
2017-08-22T13:37:44.249Z,29.20
2017-08-22T13:40:11.851Z,28.90
2017-08-22T13:42:39.450Z,29.10
2017-08-22T13:45:07.011Z,29.00
2017-08-22T13:47:34.830Z,28.60
2017-08-22T13:50:02.396Z,28.70
2017-08-22T13:52:30.510Z,28.10
2017-08-22T13:54:58.319Z,28.10
2017-08-22T13:57:25.901Z,27.80
2017-08-22T13:59:53.497Z,27.70
2017-08-22T14:02:21.055Z,27.60
2017-08-22T14:04:48.616Z,27.30
2017-08-22T14:07:16.203Z,27.30
2017-08-22T14:09:43.763Z,27.20
2017-08-22T14:12:11.461Z,27.20
2017-08-22T14:14:39.029Z,27.20
2017-08-22T14:17:06.691Z,26.60
2017-08-22T14:19:34.250Z,26.50
2017-08-22T14:22:02.360Z,26.20
2017-08-22T14:24:30.868Z,26.30
2017-08-22T14:26:58.630Z,26.40
2017-08-22T14:29:26.243Z,26.30
2017-08-22T14:31:53.814Z,26.50
2017-08-22T14:34:21.662Z,26.60
2017-08-22T14:36:49.229Z,26.40
2017-08-22T14:39:16.826Z,26.20
2017-08-22T14:41:44.410Z,26.10
2017-08-22T14:44:11.996Z,25.80
2017-08-22T14:46:40.279Z,25.80
2017-08-22T14:49:07.834Z,25.80
2017-08-22T14:51:35.443Z,25.60
2017-08-22T14:54:03.040Z,25.40
2017-08-22T14:56:30.598Z,25.60
2017-08-22T14:58:58.179Z,25.90
2017-08-22T15:01:25.757Z,26.00
2017-08-22T15:03:53.335Z,26.00
2017-08-22T15:06:20.909Z,26.10
2017-08-22T15:08:49.809Z,26.10
2017-08-22T15:11:17.381Z,25.90
2017-08-22T15:13:44.954Z,25.70
2017-08-22T15:16:12.538Z,25.60
2017-08-22T15:18:40.098Z,25.70
2017-08-22T15:21:07.684Z,25.40
2017-08-22T15:23:35.249Z,25.10
2017-08-22T15:26:03.113Z,24.70
2017-08-22T15:28:30.682Z,24.50
2017-08-22T15:30:58.243Z,24.30
2017-08-22T15:33:25.834Z,24.40
2017-08-22T15:35:53.391Z,24.60
2017-08-22T15:38:22.097Z,24.40
2017-08-22T15:40:49.680Z,24.40
2017-08-22T15:43:17.461Z,24.50
2017-08-22T15:45:45.050Z,24.40
2017-08-22T15:48:12.619Z,24.30
2017-08-22T15:50:40.235Z,24.40
2017-08-22T15:53:07.815Z,24.10
2017-08-22T15:55:36.375Z,24.10
2017-08-22T15:58:03.938Z,24.20
2017-08-22T16:00:31.719Z,24.00
2017-08-22T16:02:59.285Z,23.80
2017-08-22T16:05:26.861Z,23.70
2017-08-22T16:07:54.447Z,23.70
2017-08-22T16:10:22.022Z,23.60
2017-08-22T16:12:49.630Z,23.40
2017-08-22T16:15:17.209Z,23.40
2017-08-22T16:17:45.235Z,23.50
2017-08-22T16:20:12.806Z,23.50
2017-08-22T16:22:40.353Z,23.40
2017-08-22T16:25:07.949Z,23.30
2017-08-22T16:27:35.527Z,23.20
2017-08-22T16:30:03.134Z,23.00
2017-08-22T16:32:30.720Z,23.00
2017-08-22T16:34:58.455Z,23.00
2017-08-22T16:37:26.038Z,22.90
2017-08-22T16:39:53.605Z,22.70
2017-08-22T16:42:21.207Z,22.60
2017-08-22T16:44:48.778Z,22.40
2017-08-22T16:47:16.361Z,22.20
2017-08-22T16:49:43.912Z,22.10
2017-08-22T16:52:11.779Z,21.90
2017-08-22T16:54:39.383Z,21.90
2017-08-22T16:57:08.205Z,21.80
2017-08-22T16:59:35.790Z,21.80
2017-08-22T17:02:03.390Z,21.80
2017-08-22T17:04:30.988Z,21.80
2017-08-22T17:06:58.545Z,21.70
2017-08-22T17:09:26.167Z,21.60
2017-08-22T17:11:53.726Z,21.50
2017-08-22T17:14:21.311Z,21.50
2017-08-22T17:16:48.907Z,21.40
2017-08-22T17:19:16.478Z,21.40
2017-08-22T17:21:44.068Z,21.40
2017-08-22T17:24:11.642Z,21.40
2017-08-22T17:26:39.280Z,21.40
2017-08-22T17:29:06.846Z,21.40
2017-08-22T17:31:34.403Z,21.50
2017-08-22T17:34:02.002Z,21.50
2017-08-22T17:36:29.570Z,21.50
2017-08-22T17:38:57.179Z,21.50
2017-08-22T17:41:24.742Z,21.40
2017-08-22T17:43:52.376Z,21.40
2017-08-22T17:46:20.031Z,21.30
2017-08-22T17:48:47.709Z,21.20
2017-08-22T17:51:15.299Z,21.20
2017-08-22T17:53:42.866Z,21.10
2017-08-22T17:56:11.472Z,21.00
2017-08-22T17:58:39.059Z,20.90
2017-08-22T18:01:06.721Z,20.80
2017-08-22T18:03:34.290Z,20.60
2017-08-22T18:06:02.650Z,20.50
2017-08-22T18:08:30.629Z,20.40
2017-08-22T18:10:58.271Z,20.20
2017-08-22T18:13:26.219Z,20.10
2017-08-22T18:15:53.870Z,20.00
2017-08-22T18:18:22.009Z,19.80
2017-08-22T18:20:49.648Z,19.80
2017-08-22T18:23:17.298Z,19.70
2017-08-22T18:25:44.885Z,19.60
2017-08-22T18:28:12.492Z,19.50
2017-08-22T18:30:40.146Z,19.40
2017-08-22T18:33:07.709Z,19.40
2017-08-22T18:35:35.551Z,19.40
2017-08-22T18:38:03.109Z,19.30
2017-08-22T18:40:30.750Z,19.20
2017-08-22T18:42:58.333Z,19.10
2017-08-22T18:45:25.903Z,19.00
2017-08-22T18:47:53.498Z,18.90
2017-08-22T18:50:21.062Z,18.80
2017-08-22T18:52:49.713Z,18.70
2017-08-22T18:55:17.507Z,18.50
2017-08-22T18:57:45.101Z,18.40
2017-08-22T19:00:12.763Z,18.40
2017-08-22T19:02:40.462Z,18.30
2017-08-22T19:05:08.440Z,18.30
2017-08-22T19:07:36.026Z,18.30
2017-08-22T19:10:03.701Z,18.20
2017-08-22T19:12:31.294Z,18.10
2017-08-22T19:15:00.865Z,18.10
2017-08-22T19:17:28.580Z,17.90
2017-08-22T19:19:56.166Z,18.00
2017-08-22T19:22:24.209Z,17.90
2017-08-22T19:24:51.775Z,17.90
2017-08-22T19:27:19.539Z,17.80
2017-08-22T19:29:47.250Z,17.70
2017-08-22T19:32:15.770Z,17.70
2017-08-22T19:34:43.378Z,17.60
2017-08-22T19:37:11.009Z,17.50
2017-08-22T19:39:38.822Z,17.50
2017-08-22T19:42:06.869Z,17.40
2017-08-22T19:44:34.479Z,17.20
2017-08-22T19:47:02.267Z,17.20
2017-08-22T19:49:29.843Z,17.00
2017-08-22T19:51:57.470Z,17.10
2017-08-22T19:54:25.037Z,17.00
2017-08-22T19:56:52.641Z,17.00
2017-08-22T19:59:20.265Z,17.00
2017-08-22T20:01:47.955Z,17.00
2017-08-22T20:04:15.574Z,16.90
2017-08-22T20:06:43.305Z,16.90
2017-08-22T20:09:11.122Z,16.80
2017-08-22T20:11:38.982Z,16.70
2017-08-22T20:14:06.575Z,16.60
2017-08-22T20:16:34.390Z,16.60
2017-08-22T20:19:03.833Z,16.50
2017-08-22T20:21:31.629Z,16.50
2017-08-22T20:23:59.965Z,16.10
2017-08-22T20:26:28.010Z,16.10
2017-08-22T20:28:55.630Z,16.00
2017-08-22T20:31:23.214Z,15.90
2017-08-22T20:33:50.911Z,15.90
2017-08-22T20:36:18.502Z,16.00
2017-08-22T20:38:46.216Z,16.00
2017-08-22T20:41:13.809Z,16.00
2017-08-22T20:43:41.620Z,16.00
2017-08-22T20:46:09.382Z,16.00
2017-08-22T20:48:36.942Z,15.90
2017-08-22T20:51:04.596Z,15.90
2017-08-22T20:53:32.163Z,15.80
2017-08-22T20:55:59.742Z,15.80
2017-08-22T20:58:27.304Z,15.80
2017-08-22T21:00:55.348Z,15.70
2017-08-22T21:03:22.958Z,15.70
2017-08-22T21:05:50.617Z,15.60
2017-08-22T21:08:18.339Z,15.60
2017-08-22T21:10:46.862Z,15.50
2017-08-22T21:13:14.509Z,15.50
2017-08-22T21:15:42.087Z,15.50
2017-08-22T21:18:09.858Z,15.50
2017-08-22T21:20:37.414Z,15.40
2017-08-22T21:23:05.599Z,15.40
2017-08-22T21:25:33.191Z,15.30
2017-08-22T21:28:00.754Z,15.30
2017-08-22T21:30:28.336Z,15.30
2017-08-22T21:32:55.900Z,15.20
2017-08-22T21:35:23.526Z,15.20
2017-08-22T21:37:51.088Z,15.20
2017-08-22T21:40:18.657Z,15.20
2017-08-22T21:42:46.252Z,15.20
2017-08-22T21:45:13.813Z,15.20
2017-08-22T21:47:41.398Z,15.10
2017-08-22T21:50:08.972Z,15.10
2017-08-22T21:52:36.711Z,15.00
2017-08-22T21:55:04.279Z,14.90
2017-08-22T21:57:32.062Z,14.90
2017-08-22T21:59:59.647Z,14.90
2017-08-22T22:02:27.209Z,14.90
2017-08-22T22:04:54.797Z,14.90
2017-08-22T22:07:22.362Z,14.90
2017-08-22T22:09:50.338Z,14.80
2017-08-22T22:12:17.926Z,14.80
2017-08-22T22:14:45.486Z,14.80
2017-08-22T22:17:13.069Z,14.80
2017-08-22T22:19:40.634Z,14.80
2017-08-22T22:22:08.218Z,14.80
2017-08-22T22:24:35.778Z,14.70
2017-08-22T22:27:03.365Z,14.60
2017-08-22T22:29:30.927Z,14.60
2017-08-22T22:31:58.487Z,14.60
2017-08-22T22:34:26.097Z,14.60
2017-08-22T22:36:53.658Z,14.60
2017-08-22T22:39:21.247Z,14.60
2017-08-22T22:41:48.802Z,14.60
2017-08-22T22:44:16.578Z,14.50
2017-08-22T22:46:44.145Z,14.50
2017-08-22T22:49:12.488Z,14.30
2017-08-22T22:51:40.071Z,14.30
2017-08-22T22:54:07.632Z,14.30
2017-08-22T22:56:35.218Z,14.40
2017-08-22T22:59:02.784Z,14.40
2017-08-22T23:01:30.512Z,14.30
2017-08-22T23:03:58.076Z,14.30
2017-08-22T23:06:25.634Z,14.20
2017-08-22T23:08:53.223Z,14.10
2017-08-22T23:11:20.794Z,14.10
2017-08-22T23:13:48.374Z,13.90
2017-08-22T23:16:15.937Z,14.00
2017-08-22T23:18:43.541Z,14.00
2017-08-22T23:21:11.106Z,14.00
2017-08-22T23:23:38.687Z,13.90
2017-08-22T23:26:06.322Z,14.00
2017-08-22T23:28:33.884Z,14.00
2017-08-22T23:31:01.480Z,14.00
2017-08-22T23:33:29.043Z,14.00
2017-08-22T23:35:56.853Z,13.90
2017-08-22T23:38:24.420Z,13.90
2017-08-22T23:40:52.038Z,13.80
2017-08-22T23:43:19.626Z,13.80
2017-08-22T23:45:47.192Z,13.70
2017-08-22T23:48:14.774Z,13.70
2017-08-22T23:50:42.339Z,13.70
2017-08-22T23:53:10.289Z,13.70
2017-08-22T23:55:37.845Z,13.70
2017-08-22T23:58:05.406Z,13.70
